Main page
METAR-TAF:

METAR-TAF

Airports :

Quincy Regional Airport

Quincy, Illinois, United States

latitude: 39-56-33N, longitude: 091-11-40W, elevation: 768 ft

Current weather observation

The report was made 34 minutes ago, at 21:54 UTC
Wind 12 mph from the North/Northeast
Temperature 27°F
Humidity 46%
Pressure 30.70 in. Hg
Visibility: 10 miles
Clear sky

METAR: KUIN 202154Z AUTO 02010KT 10SM CLR M03/M13 A3070 RMK AO2 SLP408 T10331133

Time: 16:28 (22:28 UTC)

Forecast

The report was made 5 hours and 8 minutes ago, at 17:20 UTC
Forecast valid from 20 at 18 UTC to 21 at 18 UTC
Wind 14 mph from the North
Visibility: 6 miles
Clear sky
From 20 at 2300 UTC
Wind 8 mph from the North
Visibility: 6 miles
Clear sky
From 21 at 0300 UTC
Wind 3 mph from variable directions
Visibility: 6 miles
Clear sky
From 21 at 1400 UTC
Wind 13 mph from the Southwest
Visibility: 6 miles
Clear sky

TAF: KUIN 201720Z 2018/2118 36012KT P6SM SKC FM202300 36007KT P6SM SKC FM210300 VRB03KT P6SM SKC FM211400 22011KT P6SM SKC

Weather observations and forecasts of more than 4000 airports (METAR and TAF reports).

The available stations are represented by yellow and red dots on the map.

Hover mouse over dot to see the name of the station.

Then click to see weather observations and forecasts.

To change the map : click on the green buttons with a black cross to zoom in, on the green button with a dash to zoom out, or on the green arrows for adjacent maps.


METAR-TAF: